Schneifelwetter: Wetterstation Hallschlag, 537 m . NN
Wetterdaten: Samstag, 30.04.2011
Datum Zeit Temp. A. Feuchte A. Luftdruck Regen Wind Richtung Richtung Sonnenschein Helligkeit T Regen Taupunkt Windchill
30.04.2011 00:00 10,4 C 68 % 1008 hPa 0,0 l/m 12,7 km/h (3 Bft) O-NO 60 0 min 0 lux 0,00 min 4,8 C 6,6 C
30.04.2011 00:15 10,1 C 70 % 1008 hPa 0,0 l/m 11,3 km/h (2 Bft) O-NO 60 0 min 0 lux 0,00 min 4,9 C 7,0 C
30.04.2011 00:30 10,4 C 70 % 1008 hPa 0,0 l/m 14,8 km/h (3 Bft) O-NO 60 0 min 0 lux 0,00 min 5,2 C 5,7 C
30.04.2011 00:45 10,5 C 70 % 1008 hPa 0,0 l/m 16,5 km/h (3 Bft) N-NO 30 0 min 0 lux 0,00 min 5,3 C 5,1 C
30.04.2011 01:00 10,4 C 69 % 1008 hPa 0,0 l/m 15,8 km/h (3 Bft) NO22.5 40 0 min 0 lux 0,00 min 5,0 C 5,3 C
30.04.2011 01:15 10,0 C 70 % 1008 hPa 0,0 l/m 10,4 km/h (2 Bft) NO 40 0 min 0 lux 0,00 min 4,8 C 7,4 C
30.04.2011 01:30 9,9 C 71 % 1008 hPa 0,0 l/m 11,1 km/h (2 Bft) NO 40 0 min 0 lux 0,00 min 4,9 C 6,9 C
30.04.2011 01:45 9,9 C 71 % 1008 hPa 0,0 l/m 10,3 km/h (2 Bft) NO 40 0 min 0 lux 0,00 min 4,9 C 7,3 C
30.04.2011 02:00 9,5 C 71 % 1008 hPa 0,0 l/m 12,8 km/h (3 Bft) NO 40 0 min 0 lux 0,00 min 4,5 C 5,5 C
30.04.2011 02:15 8,8 C 71 % 1008 hPa 0,0 l/m 0,0 km/h (0 Bft) NO 40 0 min 0 lux 0,00 min 3,8 C 8,8 C
30.04.2011 02:30 8,4 C 73 % 1008 hPa 0,0 l/m 7,0 km/h (2 Bft) NO 40 0 min 0 lux 0,00 min 3,8 C 7,9 C
30.04.2011 02:45 8,3 C 74 % 1008 hPa 0,0 l/m 7,4 km/h (2 Bft) NO 40 0 min 0 lux 0,00 min 3,9 C 7,5 C
30.04.2011 03:00 8,2 C 75 % 1008 hPa 0,0 l/m 9,8 km/h (2 Bft) NO 40 0 min 0 lux 0,00 min 4,0 C 5,7 C
30.04.2011 03:15 7,9 C 75 % 1008 hPa 0,0 l/m 14,3 km/h (3 Bft) NO 40 0 min 0 lux 0,00 min 3,7 C 2,9 C
30.04.2011 03:30 7,3 C 76 % 1008 hPa 0,0 l/m 5,8 km/h (2 Bft) NO 40 0 min 0 lux 0,00 min 3,4 C 7,3 C
30.04.2011 03:45 7,2 C 78 % 1008 hPa 0,0 l/m 10,2 km/h (2 Bft) O-NO22.5 60 0 min 0 lux 0,00 min 3,6 C 4,4 C
30.04.2011 04:00 7,2 C 78 % 1008 hPa 0,0 l/m 10,1 km/h (2 Bft) O 80 0 min 0 lux 0,00 min 3,6 C 4,4 C
30.04.2011 04:15 7,4 C 79 % 1008 hPa 0,0 l/m 10,5 km/h (2 Bft) O-NO 70 0 min 0 lux 0,00 min 4,0 C 4,4 C
30.04.2011 04:30 7,3 C 80 % 1008 hPa 0,0 l/m 7,5 km/h (2 Bft) O-NO 70 0 min 0 lux 0,00 min 4,1 C 6,4 C
30.04.2011 04:46 7,1 C 80 % 1007 hPa 0,0 l/m 9,8 km/h (2 Bft) O-NO 70 0 min 0 lux 0,00 min 3,9 C 4,5 C
30.04.2011 05:01 6,8 C 80 % 1007 hPa 0,0 l/m 7,1 km/h (2 Bft) O-NO 70 0 min 0 lux 0,00 min 3,6 C 6,2 C
30.04.2011 05:16 6,6 C 81 % 1007 hPa 0,0 l/m 9,0 km/h (2 Bft) O-NO 70 0 min 0 lux 0,00 min 3,6 C 4,5 C
30.04.2011 05:31 6,4 C 81 % 1007 hPa 0,0 l/m 9,0 km/h (2 Bft) O-NO 70 0 min 0 lux 0,00 min 3,4 C 4,3 C
30.04.2011 05:46 6,4 C 83 % 1007 hPa 0,0 l/m 8,2 km/h (2 Bft) O-NO 70 0 min 0 lux 0,00 min 3,7 C 4,9 C
30.04.2011 06:01 6,2 C 82 % 1007 hPa 0,0 l/m 9,3 km/h (2 Bft) O-NO 70 0 min 90 lux 0,00 min 3,4 C 3,9 C
30.04.2011 06:16 6,1 C 83 % 1007 hPa 0,0 l/m 10,2 km/h (2 Bft) O-NO 70 0 min 470 lux 0,00 min 3,4 C 3,2 C
30.04.2011 06:31 6,3 C 84 % 1007 hPa 0,0 l/m 10,0 km/h (2 Bft) O-NO 70 0 min 1,28 klux 0,00 min 3,8 C 3,5 C
30.04.2011 06:46 6,6 C 85 % 1007 hPa 0,0 l/m 15,8 km/h (3 Bft) O-NO22.5 70 0 min 2,95 klux 0,00 min 4,3 C 0,6 C
30.04.2011 07:01 7,2 C 85 % 1007 hPa 0,0 l/m 13,3 km/h (3 Bft) O-NO22.5 75 0 min 6,93 klux 0,00 min 4,9 C 2,6 C
30.04.2011 07:16 7,3 C 84 % 1007 hPa 0,0 l/m 13,1 km/h (3 Bft) O-NO 75 0 min 8,31 klux 0,00 min 4,8 C 2,8 C
30.04.2011 07:31 7,5 C 84 % 1007 hPa 0,0 l/m 14,1 km/h (3 Bft) O-NO22.5 75 0 min 13,3 klux 0,00 min 5,0 C 2,5 C
30.04.2011 07:46 7,9 C 84 % 1007 hPa 0,0 l/m 15,7 km/h (3 Bft) O-NO22.5 65 0 min 16,0 klux 0,00 min 5,4 C 2,3 C
30.04.2011 08:00 8,7 C 82 % 1007 hPa 0,0 l/m 15,8 km/h (3 Bft) O-NO22.5 70 0 min 21,5 klux 0,00 min 5,8 C 3,2 C
30.04.2011 08:15 9,5 C 81 % 1007 hPa 0,0 l/m 14,5 km/h (3 Bft) O-NO45 75 0 min 25,8 klux 0,00 min 6,4 C 4,7 C
30.04.2011 08:30 10,4 C 79 % 1007 hPa 0,0 l/m 17,5 km/h (3 Bft) O45 95 0 min 30,4 klux 0,00 min 6,9 C 4,7 C
30.04.2011 08:45 11,2 C 77 % 1007 hPa 0,0 l/m 18,1 km/h (3 Bft) O45 90 0 min 35,0 klux 0,00 min 7,3 C 5,5 C
30.04.2011 09:00 12,1 C 73 % 1007 hPa 0,0 l/m 22,5 km/h (4 Bft) O45 90 0 min 39,3 klux 0,00 min 7,4 C 5,3 C
30.04.2011 09:15 12,8 C 71 % 1007 hPa 0,0 l/m 30,6 km/h (5 Bft) O45 80 0 min 42,5 klux 0,00 min 7,7 C 4,5 C
30.04.2011 09:30 13,3 C 69 % 1007 hPa 0,0 l/m 29,9 km/h (5 Bft) O45 80 0 min 46,6 klux 0,00 min 7,7 C 5,3 C
30.04.2011 09:45 14,0 C 67 % 1007 hPa 0,0 l/m 31,3 km/h (5 Bft) O-NO45 75 0 min 49,8 klux 0,00 min 8,0 C 6,1 C
30.04.2011 10:00 14,8 C 65 % 1007 hPa 0,0 l/m 25,3 km/h (4 Bft) O-NO67.5 70 15 min 53,0 klux 0,00 min 8,3 C 8,3 C
30.04.2011 10:15 15,4 C 62 % 1007 hPa 0,0 l/m 26,3 km/h (4 Bft) O67.5 90 15 min 56,4 klux 0,00 min 8,2 C 8,9 C
30.04.2011 10:30 15,9 C 60 % 1007 hPa 0,0 l/m 23,8 km/h (4 Bft) O22.5 80 15 min 59,0 klux 0,00 min 8,1 C 10,1 C
30.04.2011 10:45 16,4 C 60 % 1007 hPa 0,0 l/m 25,1 km/h (4 Bft) O45 85 15 min 62,6 klux 0,00 min 8,6 C 10,5 C
30.04.2011 11:00 16,8 C 57 % 1007 hPa 0,0 l/m 28,4 km/h (4 Bft) O67.5 95 15 min 65,4 klux 0,00 min 8,2 C 10,5 C
30.04.2011 11:15 17,2 C 53 % 1007 hPa 0,0 l/m 39,7 km/h (6 Bft) O67.5 85 15 min 68,1 klux 0,00 min 7,5 C 9,6 C
30.04.2011 11:30 17,4 C 55 % 1007 hPa 0,0 l/m 33,0 km/h (5 Bft) O67.5 95 15 min 70,1 klux 0,00 min 8,3 C 10,7 C
30.04.2011 11:45 17,4 C 52 % 1007 hPa 0,0 l/m 32,9 km/h (5 Bft) O-NO45 65 15 min 71,9 klux 0,00 min 7,4 C 10,7 C
30.04.2011 12:00 17,0 C 52 % 1007 hPa 0,0 l/m 37,5 km/h (5 Bft) O-NO45 65 15 min 75,8 klux 0,00 min 7,1 C 9,5 C
30.04.2011 12:15 17,5 C 53 % 1007 hPa 0,0 l/m 39,7 km/h (6 Bft) O-SO67.5 105 15 min 83,7 klux 0,00 min 7,8 C 10,0 C
30.04.2011 12:30 18,0 C 49 % 1007 hPa 0,0 l/m 35,3 km/h (5 Bft) O45 80 15 min 88,1 klux 0,00 min 7,1 C 11,2 C
30.04.2011 12:45 17,9 C 52 % 1007 hPa 0,0 l/m 40,5 km/h (6 Bft) O45 80 15 min 93,6 klux 0,00 min 7,9 C 10,6 C
30.04.2011 13:00 18,0 C 48 % 1007 hPa 0,0 l/m 39,3 km/h (6 Bft) O45 85 15 min 86,7 klux 0,00 min 6,8 C 10,8 C
30.04.2011 13:15 18,0 C 48 % 1007 hPa 0,0 l/m 39,7 km/h (6 Bft) O-NO45 75 15 min 91,7 klux 0,00 min 6,8 C 10,8 C
30.04.2011 13:30 18,0 C 47 % 1007 hPa 0,0 l/m 36,7 km/h (5 Bft) O45 95 15 min 89,3 klux 0,00 min 6,5 C 11,1 C
30.04.2011 13:45 18,4 C 46 % 1007 hPa 0,0 l/m 37,2 km/h (5 Bft) O67.5 90 15 min 94,6 klux 0,00 min 6,6 C 11,6 C
30.04.2011 14:00 18,3 C 47 % 1007 hPa 0,0 l/m 33,1 km/h (5 Bft) O45 100 15 min 96,1 klux 0,00 min 6,8 C 11,9 C
30.04.2011 14:15 17,9 C 47 % 1007 hPa 0,0 l/m 33,9 km/h (5 Bft) O67.5 80 15 min 85,3 klux 0,00 min 6,4 C 11,3 C
30.04.2011 14:30 17,8 C 47 % 1006 hPa 0,0 l/m 30,5 km/h (5 Bft) O67.5 80 15 min 88,2 klux 0,00 min 6,3 C 11,6 C
30.04.2011 14:45 18,4 C 48 % 1006 hPa 0,0 l/m 33,2 km/h (5 Bft) O-SO67.5 105 15 min 88,8 klux 0,00 min 7,2 C 12,1 C
30.04.2011 15:00 17,6 C 47 % 1006 hPa 0,0 l/m 37,8 km/h (5 Bft) O-NO67.5 70 15 min 61,3 klux 0,00 min 6,2 C 10,4 C
30.04.2011 15:15 17,7 C 47 % 1006 hPa 0,0 l/m 35,9 km/h (5 Bft) O-NO45 60 15 min 82,0 klux 0,00 min 6,2 C 10,7 C
30.04.2011 15:31 17,8 C 48 % 1006 hPa 0,0 l/m 35,6 km/h (5 Bft) O-NO45 65 16 min 73,2 klux 0,00 min 6,6 C 10,9 C
30.04.2011 15:45 17,7 C 49 % 1006 hPa 0,0 l/m 32,2 km/h (5 Bft) O-NO45 65 14 min 80,7 klux 0,00 min 6,9 C 11,2 C
30.04.2011 16:00 18,2 C 48 % 1006 hPa 0,0 l/m 28,8 km/h (4 Bft) O67.5 80 15 min 74,0 klux 0,00 min 7,0 C 12,4 C
30.04.2011 16:15 18,2 C 48 % 1006 hPa 0,0 l/m 33,2 km/h (5 Bft) O67.5 85 15 min 59,0 klux 0,00 min 7,0 C 11,8 C
30.04.2011 16:30 16,8 C 51 % 1006 hPa 0,0 l/m 29,5 km/h (5 Bft) O-NO45 65 0 min 12,8 klux 0,00 min 6,6 C 10,3 C
30.04.2011 16:45 17,2 C 52 % 1006 hPa 0,0 l/m 22,3 km/h (4 Bft) O45 95 15 min 71,2 klux 0,00 min 7,3 C 12,1 C
30.04.2011 17:01 17,2 C 51 % 1006 hPa 0,0 l/m 32,4 km/h (5 Bft) O-NO45 70 0 min 27,5 klux 0,00 min 7,0 C 10,4 C
30.04.2011 17:15 16,4 C 53 % 1006 hPa 0,0 l/m 30,3 km/h (5 Bft) NO22.5 55 0 min 13,6 klux 0,00 min 6,8 C 9,6 C
30.04.2011 17:30 16,2 C 54 % 1006 hPa 0,0 l/m 28,5 km/h (4 Bft) O-NO45 70 0 min 29,7 klux 0,00 min 6,9 C 9,6 C
30.04.2011 17:45 16,4 C 53 % 1006 hPa 0,0 l/m 33,1 km/h (5 Bft) O-NO45 75 0 min 32,2 klux 0,00 min 6,8 C 9,2 C
30.04.2011 18:00 17,1 C 50 % 1005 hPa 0,0 l/m 27,3 km/h (4 Bft) O-NO22.5 70 0 min 50,3 klux 0,00 min 6,6 C 11,1 C
30.04.2011 18:15 16,8 C 51 % 1005 hPa 0,0 l/m 31,0 km/h (5 Bft) O-NO45 65 0 min 17,4 klux 0,00 min 6,6 C 10,1 C
30.04.2011 18:30 16,1 C 54 % 1005 hPa 0,0 l/m 23,5 km/h (4 Bft) O-NO45 75 0 min 6,29 klux 0,00 min 6,8 C 10,4 C
30.04.2011 18:45 15,4 C 55 % 1005 hPa 0,0 l/m 16,4 km/h (3 Bft) NO22.5 55 0 min 6,63 klux 0,00 min 6,4 C 11,2 C
30.04.2011 19:00 15,0 C 57 % 1006 hPa 0,0 l/m 25,4 km/h (4 Bft) NO45 45 0 min 14,0 klux 0,00 min 6,6 C 8,5 C
30.04.2011 19:15 15,3 C 58 % 1005 hPa 0,0 l/m 44,2 km/h (6 Bft) O67.5 95 0 min 12,5 klux 0,00 min 7,1 C 6,3 C
30.04.2011 19:30 15,5 C 56 % 1006 hPa 0,0 l/m 44,7 km/h (6 Bft) O-NO22.5 75 0 min 14,6 klux 0,00 min 6,8 C 6,6 C
30.04.2011 19:45 15,2 C 55 % 1006 hPa 0,0 l/m 21,8 km/h (4 Bft) O-NO45 75 0 min 11,3 klux 0,00 min 6,2 C 9,6 C
30.04.2011 20:00 14,9 C 57 % 1006 hPa 0,0 l/m 17,6 km/h (3 Bft) O22.5 90 0 min 8,56 klux 0,00 min 6,5 C 10,3 C
30.04.2011 20:16 14,4 C 59 % 1006 hPa 0,0 l/m 22,5 km/h (4 Bft) O-NO22.5 75 0 min 5,01 klux 0,00 min 6,5 C 8,4 C
30.04.2011 20:30 13,7 C 61 % 1006 hPa 0,0 l/m 21,6 km/h (4 Bft) O22.5 85 0 min 2,29 klux 0,00 min 6,3 C 7,6 C
30.04.2011 20:45 13,0 C 62 % 1006 hPa 0,0 l/m 18,5 km/h (3 Bft) O67.5 90 0 min 1,26 klux 0,00 min 5,9 C 7,6 C
30.04.2011 21:00 12,4 C 64 % 1007 hPa 0,0 l/m 16,8 km/h (3 Bft) O45 90 0 min 523 lux 0,00 min 5,8 C 7,4 C
30.04.2011 21:15 12,0 C 65 % 1007 hPa 0,0 l/m 15,0 km/h (3 Bft) O22.5 90 0 min 131 lux 0,00 min 5,6 C 7,6 C
30.04.2011 21:30 11,3 C 66 % 1007 hPa 0,0 l/m 10,0 km/h (2 Bft) O 80 0 min 18 lux 0,00 min 5,2 C 9,0 C
30.04.2011 21:45 10,7 C 68 % 1007 hPa 0,0 l/m 5,9 km/h (2 Bft) O 80 0 min 3 lux 0,00 min 5,0 C 10,7 C
30.04.2011 22:01 10,6 C 70 % 1007 hPa 0,0 l/m 5,9 km/h (2 Bft) O 80 0 min 0 lux 0,00 min 5,4 C 10,6 C
30.04.2011 22:15 10,9 C 70 % 1007 hPa 0,0 l/m 12,6 km/h (3 Bft) O 80 0 min 0 lux 0,00 min 5,6 C 7,3 C
30.04.2011 22:30 10,8 C 70 % 1008 hPa 0,0 l/m 12,6 km/h (3 Bft) O 80 0 min 0 lux 0,00 min 5,6 C 7,1 C
30.04.2011 22:45 10,9 C 69 % 1008 hPa 0,0 l/m 8,1 km/h (2 Bft) O 80 0 min 0 lux 0,00 min 5,4 C 9,7 C
30.04.2011 23:00 10,6 C 70 % 1008 hPa 0,0 l/m 7,5 km/h (2 Bft) O 80 0 min 0 lux 0,00 min 5,4 C 9,8 C
30.04.2011 23:15 10,3 C 70 % 1008 hPa 0,0 l/m 7,4 km/h (2 Bft) O 80 0 min 0 lux 0,00 min 5,1 C 9,6 C
30.04.2011 23:31 9,8 C 71 % 1008 hPa 0,0 l/m 6,4 km/h (2 Bft) O 80 0 min 0 lux 0,00 min 4,8 C 9,8 C
30.04.2011 23:45 9,6 C 72 % 1008 hPa 0,0 l/m 5,4 km/h (1 Bft) O 80 0 min 0 lux 0,00 min 4,8 C 9,6 C
_ Min-Zeit 06:16 13:45 18:00 - 02:15 - - - - - 03:30 06:46
Minimum _ 6,1 C 46 % 1005 hPa - 0,0 km/h (0 Bft) - - - - - 3,4 C 0,6 C
_ Max-Zeit 13:45 06:46 00:00 00:00 19:30 - - 15:31 14:00 00:00 10:45 16:00
Maximum _ 18,4 C 85 % 1008 hPa 0,0 l/m 44,7 km/h
O-NO (6 Bft)
- - 16 min 96,1 klux 0,00 min 8,6 C 12,4 C
Durchschnitt _ 12,7 C 65 % 1007 hPa #0,0 l/m 20,9 km/h (4 Bft) O-NO - #6:45 h 27,9 klux #0 min. 5,9 C 7,9 C